sensor_id;sensor_type;location;lat;lon;timestamp;temperature;humidity
75130;HTU21D;63703;44.716;37.846;2023-04-05T00:00:45;16.91;50.76
75130;HTU21D;63703;44.716;37.846;2023-04-05T00:03:11;16.80;51.21
75130;HTU21D;63703;44.716;37.846;2023-04-05T00:05:38;16.73;51.61
75130;HTU21D;63703;44.716;37.846;2023-04-05T00:08:04;16.70;51.56
75130;HTU21D;63703;44.716;37.846;2023-04-05T00:10:38;16.74;51.24
75130;HTU21D;63703;44.716;37.846;2023-04-05T00:13:04;16.82;50.82
75130;HTU21D;63703;44.716;37.846;2023-04-05T00:15:30;16.94;50.53
75130;HTU21D;63703;44.716;37.846;2023-04-05T00:17:58;17.06;50.31
75130;HTU21D;63703;44.716;37.846;2023-04-05T00:20:28;17.10;50.25
75130;HTU21D;63703;44.716;37.846;2023-04-05T00:22:54;17.17;50.11
75130;HTU21D;63703;44.716;37.846;2023-04-05T00:25:20;17.24;49.92
75130;HTU21D;63703;44.716;37.846;2023-04-05T00:27:47;17.30;49.75
75130;HTU21D;63703;44.716;37.846;2023-04-05T00:30:13;17.35;49.56
75130;HTU21D;63703;44.716;37.846;2023-04-05T00:32:48;17.44;49.39
75130;HTU21D;63703;44.716;37.846;2023-04-05T00:35:15;17.38;49.62
75130;HTU21D;63703;44.716;37.846;2023-04-05T00:37:41;17.29;49.97
75130;HTU21D;63703;44.716;37.846;2023-04-05T00:40:08;17.21;50.16
75130;HTU21D;63703;44.716;37.846;2023-04-05T00:42:35;17.18;50.30
75130;HTU21D;63703;44.716;37.846;2023-04-05T00:45:00;17.13;50.46
75130;HTU21D;63703;44.716;37.846;2023-04-05T00:47:27;17.05;50.92
75130;HTU21D;63703;44.716;37.846;2023-04-05T00:49:53;16.98;51.29
75130;HTU21D;63703;44.716;37.846;2023-04-05T00:52:19;16.91;51.41
75130;HTU21D;63703;44.716;37.846;2023-04-05T00:54:48;16.88;51.39
75130;HTU21D;63703;44.716;37.846;2023-04-05T00:57:16;16.86;51.49
75130;HTU21D;63703;44.716;37.846;2023-04-05T00:59:42;16.82;51.66
75130;HTU21D;63703;44.716;37.846;2023-04-05T01:02:31;16.78;52.05
75130;HTU21D;63703;44.716;37.846;2023-04-05T01:05:03;16.69;52.59
75130;HTU21D;63703;44.716;37.846;2023-04-05T01:07:50;16.63;52.98
75130;HTU21D;63703;44.716;37.846;2023-04-05T01:10:21;16.55;52.88
75130;HTU21D;63703;44.716;37.846;2023-04-05T01:12:49;16.49;52.80
75130;HTU21D;63703;44.716;37.846;2023-04-05T01:15:15;16.50;52.66
75130;HTU21D;63703;44.716;37.846;2023-04-05T01:17:43;16.52;52.46
75130;HTU21D;63703;44.716;37.846;2023-04-05T01:20:11;16.55;52.73
75130;HTU21D;63703;44.716;37.846;2023-04-05T01:28:22;16.30;53.42
75130;HTU21D;63703;44.716;37.846;2023-04-05T01:30:57;16.24;53.65
75130;HTU21D;63703;44.716;37.846;2023-04-05T01:33:40;16.16;53.59
75130;HTU21D;63703;44.716;37.846;2023-04-05T01:36:36;16.22;53.20
75130;HTU21D;63703;44.716;37.846;2023-04-05T01:39:04;16.29;52.94
75130;HTU21D;63703;44.716;37.846;2023-04-05T01:41:32;16.39;52.54
75130;HTU21D;63703;44.716;37.846;2023-04-05T01:43:59;16.49;52.14
75130;HTU21D;63703;44.716;37.846;2023-04-05T01:46:27;16.62;51.75
75130;HTU21D;63703;44.716;37.846;2023-04-05T01:48:52;16.75;51.35
75130;HTU21D;63703;44.716;37.846;2023-04-05T01:51:18;16.86;51.00
75130;HTU21D;63703;44.716;37.846;2023-04-05T01:53:45;16.94;50.71
75130;HTU21D;63703;44.716;37.846;2023-04-05T01:56:13;16.95;51.04
75130;HTU21D;63703;44.716;37.846;2023-04-05T01:58:39;16.86;51.63
75130;HTU21D;63703;44.716;37.846;2023-04-05T02:01:06;16.72;52.06
75130;HTU21D;63703;44.716;37.846;2023-04-05T02:03:33;16.64;52.85
75130;HTU21D;63703;44.716;37.846;2023-04-05T02:05:59;16.57;52.73
75130;HTU21D;63703;44.716;37.846;2023-04-05T02:08:25;16.58;52.55
75130;HTU21D;63703;44.716;37.846;2023-04-05T02:10:52;16.58;52.26
75130;HTU21D;63703;44.716;37.846;2023-04-05T02:13:18;16.70;51.77
75130;HTU21D;63703;44.716;37.846;2023-04-05T02:15:48;16.85;51.22
75130;HTU21D;63703;44.716;37.846;2023-04-05T02:18:15;16.98;50.79
75130;HTU21D;63703;44.716;37.846;2023-04-05T02:20:41;17.14;50.40
75130;HTU21D;63703;44.716;37.846;2023-04-05T02:23:08;17.28;49.94
75130;HTU21D;63703;44.716;37.846;2023-04-05T02:25:34;17.48;49.38
75130;HTU21D;63703;44.716;37.846;2023-04-05T02:27:59;17.58;49.19
75130;HTU21D;63703;44.716;37.846;2023-04-05T02:30:25;17.66;48.98
75130;HTU21D;63703;44.716;37.846;2023-04-05T02:32:53;17.72;48.73
75130;HTU21D;63703;44.716;37.846;2023-04-05T02:35:20;17.82;48.38
75130;HTU21D;63703;44.716;37.846;2023-04-05T02:37:48;17.95;48.04
75130;HTU21D;63703;44.716;37.846;2023-04-05T02:40:14;18.04;48.01
75130;HTU21D;63703;44.716;37.846;2023-04-05T02:42:40;18.03;48.19
75130;HTU21D;63703;44.716;37.846;2023-04-05T02:45:06;17.87;48.83
75130;HTU21D;63703;44.716;37.846;2023-04-05T02:47:34;17.58;49.53
75130;HTU21D;63703;44.716;37.846;2023-04-05T02:50:00;17.28;50.09
75130;HTU21D;63703;44.716;37.846;2023-04-05T02:52:31;17.03;50.52
75130;HTU21D;63703;44.716;37.846;2023-04-05T02:54:58;16.87;50.85
75130;HTU21D;63703;44.716;37.846;2023-04-05T02:57:29;16.70;51.13
75130;HTU21D;63703;44.716;37.846;2023-04-05T03:00:15;16.51;51.37
75130;HTU21D;63703;44.716;37.846;2023-04-05T03:02:41;16.40;51.55
75130;HTU21D;63703;44.716;37.846;2023-04-05T03:05:07;16.29;51.68
75130;HTU21D;63703;44.716;37.846;2023-04-05T03:07:34;16.24;51.72
75130;HTU21D;63703;44.716;37.846;2023-04-05T03:10:05;16.21;51.69
75130;HTU21D;63703;44.716;37.846;2023-04-05T03:12:34;16.21;51.69
75130;HTU21D;63703;44.716;37.846;2023-04-05T03:15:01;16.20;51.72
75130;HTU21D;63703;44.716;37.846;2023-04-05T03:17:35;16.18;51.76
75130;HTU21D;63703;44.716;37.846;2023-04-05T03:20:03;16.18;51.76
75130;HTU21D;63703;44.716;37.846;2023-04-05T03:22:34;16.17;51.82
75130;HTU21D;63703;44.716;37.846;2023-04-05T03:25:02;16.17;51.88
75130;HTU21D;63703;44.716;37.846;2023-04-05T03:27:30;16.14;51.99
75130;HTU21D;63703;44.716;37.846;2023-04-05T03:30:12;16.11;52.13
75130;HTU21D;63703;44.716;37.846;2023-04-05T03:32:44;16.12;52.25
75130;HTU21D;63703;44.716;37.846;2023-04-05T03:35:30;16.15;52.44
75130;HTU21D;63703;44.716;37.846;2023-04-05T03:37:56;16.14;52.72
75130;HTU21D;63703;44.716;37.846;2023-04-05T03:40:23;16.10;52.96
75130;HTU21D;63703;44.716;37.846;2023-04-05T03:42:50;16.07;53.13
75130;HTU21D;63703;44.716;37.846;2023-04-05T03:45:16;16.05;53.28
75130;HTU21D;63703;44.716;37.846;2023-04-05T03:47:43;16.04;53.43
75130;HTU21D;63703;44.716;37.846;2023-04-05T03:50:09;16.02;53.62
75130;HTU21D;63703;44.716;37.846;2023-04-05T03:52:35;16.02;53.75
75130;HTU21D;63703;44.716;37.846;2023-04-05T03:55:02;16.02;53.90
75130;HTU21D;63703;44.716;37.846;2023-04-05T03:57:31;16.00;54.06
75130;HTU21D;63703;44.716;37.846;2023-04-05T04:00:05;16.00;54.17
75130;HTU21D;63703;44.716;37.846;2023-04-05T04:02:44;16.01;54.26
75130;HTU21D;63703;44.716;37.846;2023-04-05T04:05:16;16.01;54.26
75130;HTU21D;63703;44.716;37.846;2023-04-05T04:07:43;16.00;54.30
75130;HTU21D;63703;44.716;37.846;2023-04-05T04:10:11;16.01;54.33
75130;HTU21D;63703;44.716;37.846;2023-04-05T04:12:37;16.00;54.38
75130;HTU21D;63703;44.716;37.846;2023-04-05T04:15:05;15.98;54.48
75130;HTU21D;63703;44.716;37.846;2023-04-05T04:17:52;15.96;54.57
75130;HTU21D;63703;44.716;37.846;2023-04-05T04:20:40;15.93;54.70
75130;HTU21D;63703;44.716;37.846;2023-04-05T04:23:25;15.90;54.84
75130;HTU21D;63703;44.716;37.846;2023-04-05T04:25:51;15.90;54.92
75130;HTU21D;63703;44.716;37.846;2023-04-05T04:28:37;15.97;55.07
75130;HTU21D;63703;44.716;37.846;2023-04-05T04:31:30;16.01;55.11
75130;HTU21D;63703;44.716;37.846;2023-04-05T04:34:04;16.03;55.26
75130;HTU21D;63703;44.716;37.846;2023-04-05T04:36:54;16.05;55.41
75130;HTU21D;63703;44.716;37.846;2023-04-05T04:39:44;16.00;55.31
75130;HTU21D;63703;44.716;37.846;2023-04-05T04:42:31;15.99;55.48
75130;HTU21D;63703;44.716;37.846;2023-04-05T04:45:14;16.04;55.54
75130;HTU21D;63703;44.716;37.846;2023-04-05T04:47:46;16.08;55.58
75130;HTU21D;63703;44.716;37.846;2023-04-05T04:50:31;16.12;55.61
75130;HTU21D;63703;44.716;37.846;2023-04-05T04:53:00;16.16;55.68
75130;HTU21D;63703;44.716;37.846;2023-04-05T04:55:27;16.20;55.74
75130;HTU21D;63703;44.716;37.846;2023-04-05T04:57:54;16.24;55.87
75130;HTU21D;63703;44.716;37.846;2023-04-05T05:00:21;16.28;55.82
75130;HTU21D;63703;44.716;37.846;2023-04-05T05:02:50;16.40;55.87
75130;HTU21D;63703;44.716;37.846;2023-04-05T05:05:18;16.39;56.31
75130;HTU21D;63703;44.716;37.846;2023-04-05T05:07:48;16.27;56.48
75130;HTU21D;63703;44.716;37.846;2023-04-05T05:10:14;16.27;56.50
75130;HTU21D;63703;44.716;37.846;2023-04-05T05:12:43;16.30;56.51
75130;HTU21D;63703;44.716;37.846;2023-04-05T05:15:11;16.33;56.59
75130;HTU21D;63703;44.716;37.846;2023-04-05T05:17:37;16.34;56.67
75130;HTU21D;63703;44.716;37.846;2023-04-05T05:20:04;16.36;56.64
75130;HTU21D;63703;44.716;37.846;2023-04-05T05:22:39;16.39;56.68
75130;HTU21D;63703;44.716;37.846;2023-04-05T05:25:06;16.39;56.68
75130;HTU21D;63703;44.716;37.846;2023-04-05T05:27:32;16.35;56.77
75130;HTU21D;63703;44.716;37.846;2023-04-05T05:30:01;16.32;57.01
75130;HTU21D;63703;44.716;37.846;2023-04-05T05:32:27;16.29;57.10
75130;HTU21D;63703;44.716;37.846;2023-04-05T05:34:53;16.28;57.11
75130;HTU21D;63703;44.716;37.846;2023-04-05T05:37:27;16.29;57.19
75130;HTU21D;63703;44.716;37.846;2023-04-05T05:39:54;16.30;57.18
75130;HTU21D;63703;44.716;37.846;2023-04-05T05:42:20;16.30;57.20
75130;HTU21D;63703;44.716;37.846;2023-04-05T05:44:46;16.29;57.33
75130;HTU21D;63703;44.716;37.846;2023-04-05T05:47:12;16.27;57.67
75130;HTU21D;63703;44.716;37.846;2023-04-05T05:49:38;16.24;58.09
75130;HTU21D;63703;44.716;37.846;2023-04-05T05:52:04;16.20;58.37
75130;HTU21D;63703;44.716;37.846;2023-04-05T05:54:30;16.20;58.58
75130;HTU21D;63703;44.716;37.846;2023-04-05T05:56:56;16.27;58.51
75130;HTU21D;63703;44.716;37.846;2023-04-05T05:59:22;16.28;58.48
75130;HTU21D;63703;44.716;37.846;2023-04-05T06:01:48;16.31;58.69
75130;HTU21D;63703;44.716;37.846;2023-04-05T06:04:16;16.33;58.61
75130;HTU21D;63703;44.716;37.846;2023-04-05T06:06:43;16.35;58.51
75130;HTU21D;63703;44.716;37.846;2023-04-05T06:09:11;16.41;58.35
75130;HTU21D;63703;44.716;37.846;2023-04-05T06:11:37;16.44;58.35
75130;HTU21D;63703;44.716;37.846;2023-04-05T06:14:03;16.44;58.53
75130;HTU21D;63703;44.716;37.846;2023-04-05T06:16:29;16.43;58.99
75130;HTU21D;63703;44.716;37.846;2023-04-05T06:18:56;16.39;59.25
75130;HTU21D;63703;44.716;37.846;2023-04-05T06:21:22;16.34;59.93
75130;HTU21D;63703;44.716;37.846;2023-04-05T06:23:48;16.26;60.26
75130;HTU21D;63703;44.716;37.846;2023-04-05T06:26:21;16.20;60.84
75130;HTU21D;63703;44.716;37.846;2023-04-05T06:28:49;16.15;60.75
75130;HTU21D;63703;44.716;37.846;2023-04-05T06:31:15;16.10;60.98
75130;HTU21D;63703;44.716;37.846;2023-04-05T06:33:42;16.03;61.24
75130;HTU21D;63703;44.716;37.846;2023-04-05T06:36:09;16.00;61.50
75130;HTU21D;63703;44.716;37.846;2023-04-05T06:38:35;15.99;61.67
75130;HTU21D;63703;44.716;37.846;2023-04-05T06:41:01;16.02;61.73
75130;HTU21D;63703;44.716;37.846;2023-04-05T06:43:27;16.08;61.67
75130;HTU21D;63703;44.716;37.846;2023-04-05T06:45:57;16.19;61.86
75130;HTU21D;63703;44.716;37.846;2023-04-05T06:48:23;16.28;61.74
75130;HTU21D;63703;44.716;37.846;2023-04-05T06:50:59;16.45;61.89
75130;HTU21D;63703;44.716;37.846;2023-04-05T06:53:26;16.51;61.59
75130;HTU21D;63703;44.716;37.846;2023-04-05T06:55:56;16.46;61.92
75130;HTU21D;63703;44.716;37.846;2023-04-05T06:58:24;16.39;62.06
75130;HTU21D;63703;44.716;37.846;2023-04-05T07:00:51;16.34;62.24
75130;HTU21D;63703;44.716;37.846;2023-04-05T07:03:17;16.36;62.23
75130;HTU21D;63703;44.716;37.846;2023-04-05T07:05:54;16.47;62.57
75130;HTU21D;63703;44.716;37.846;2023-04-05T07:08:22;16.55;62.18
75130;HTU21D;63703;44.716;37.846;2023-04-05T07:10:49;16.62;62.26
75130;HTU21D;63703;44.716;37.846;2023-04-05T07:13:15;16.69;62.28
75130;HTU21D;63703;44.716;37.846;2023-04-05T07:15:45;16.69;62.37
75130;HTU21D;63703;44.716;37.846;2023-04-05T07:18:11;16.60;62.56
75130;HTU21D;63703;44.716;37.846;2023-04-05T07:20:38;16.47;62.70
75130;HTU21D;63703;44.716;37.846;2023-04-05T07:23:04;16.33;62.89
75130;HTU21D;63703;44.716;37.846;2023-04-05T07:25:32;16.14;63.33
75130;HTU21D;63703;44.716;37.846;2023-04-05T07:27:58;15.96;63.50
75130;HTU21D;63703;44.716;37.846;2023-04-05T07:30:29;15.85;63.72
75130;HTU21D;63703;44.716;37.846;2023-04-05T07:32:56;15.76;63.65
75130;HTU21D;63703;44.716;37.846;2023-04-05T07:35:23;15.72;63.82
75130;HTU21D;63703;44.716;37.846;2023-04-05T07:37:50;15.69;63.92
75130;HTU21D;63703;44.716;37.846;2023-04-05T07:40:16;15.70;63.90
75130;HTU21D;63703;44.716;37.846;2023-04-05T07:42:42;15.73;64.07
75130;HTU21D;63703;44.716;37.846;2023-04-05T07:45:08;15.74;64.12
75130;HTU21D;63703;44.716;37.846;2023-04-05T07:47:35;15.75;64.04
75130;HTU21D;63703;44.716;37.846;2023-04-05T07:50:01;15.78;64.06
75130;HTU21D;63703;44.716;37.846;2023-04-05T07:52:27;15.82;64.09
75130;HTU21D;63703;44.716;37.846;2023-04-05T07:54:54;15.80;64.13
75130;HTU21D;63703;44.716;37.846;2023-04-05T07:57:20;15.76;64.01
75130;HTU21D;63703;44.716;37.846;2023-04-05T07:59:47;15.77;63.95
75130;HTU21D;63703;44.716;37.846;2023-04-05T08:02:15;15.82;63.75
75130;HTU21D;63703;44.716;37.846;2023-04-05T08:04:42;15.88;63.37
75130;HTU21D;63703;44.716;37.846;2023-04-05T08:07:08;15.98;62.98
75130;HTU21D;63703;44.716;37.846;2023-04-05T08:09:34;16.12;61.79
75130;HTU21D;63703;44.716;37.846;2023-04-05T08:12:01;16.21;61.51
75130;HTU21D;63703;44.716;37.846;2023-04-05T08:14:27;16.35;60.95
75130;HTU21D;63703;44.716;37.846;2023-04-05T08:16:53;16.49;60.28
75130;HTU21D;63703;44.716;37.846;2023-04-05T08:19:20;16.59;59.57
75130;HTU21D;63703;44.716;37.846;2023-04-05T08:21:46;16.65;59.25
75130;HTU21D;63703;44.716;37.846;2023-04-05T08:24:12;16.71;59.09
75130;HTU21D;63703;44.716;37.846;2023-04-05T08:26:38;16.73;59.09
75130;HTU21D;63703;44.716;37.846;2023-04-05T08:29:04;16.74;58.96
75130;HTU21D;63703;44.716;37.846;2023-04-05T08:31:30;16.66;59.18
75130;HTU21D;63703;44.716;37.846;2023-04-05T08:33:55;16.63;59.23
75130;HTU21D;63703;44.716;37.846;2023-04-05T08:36:21;16.64;59.22
75130;HTU21D;63703;44.716;37.846;2023-04-05T08:38:48;16.67;59.14
75130;HTU21D;63703;44.716;37.846;2023-04-05T08:41:17;16.78;59.05
75130;HTU21D;63703;44.716;37.846;2023-04-05T08:44:01;16.98;58.74
75130;HTU21D;63703;44.716;37.846;2023-04-05T08:46:32;17.23;58.58
75130;HTU21D;63703;44.716;37.846;2023-04-05T08:48:59;17.53;58.23
75130;HTU21D;63703;44.716;37.846;2023-04-05T08:51:26;17.79;57.49
75130;HTU21D;63703;44.716;37.846;2023-04-05T08:53:53;17.96;57.12
75130;HTU21D;63703;44.716;37.846;2023-04-05T08:56:26;18.13;56.45
75130;HTU21D;63703;44.716;37.846;2023-04-05T08:59:07;18.26;55.42
75130;HTU21D;63703;44.716;37.846;2023-04-05T09:01:36;18.41;55.65
75130;HTU21D;63703;44.716;37.846;2023-04-05T09:04:10;18.63;55.07
75130;HTU21D;63703;44.716;37.846;2023-04-05T09:06:36;18.86;54.56
75130;HTU21D;63703;44.716;37.846;2023-04-05T09:09:05;19.23;53.51
75130;HTU21D;63703;44.716;37.846;2023-04-05T09:11:33;19.42;53.04
75130;HTU21D;63703;44.716;37.846;2023-04-05T09:14:02;19.77;52.51
75130;HTU21D;63703;44.716;37.846;2023-04-05T09:16:29;20.26;51.53
75130;HTU21D;63703;44.716;37.846;2023-04-05T09:18:56;20.46;50.05
75130;HTU21D;63703;44.716;37.846;2023-04-05T09:21:22;20.53;50.19
75130;HTU21D;63703;44.716;37.846;2023-04-05T09:23:52;20.53;49.18
75130;HTU21D;63703;44.716;37.846;2023-04-05T09:26:21;20.43;48.82
75130;HTU21D;63703;44.716;37.846;2023-04-05T09:28:50;20.46;49.03
75130;HTU21D;63703;44.716;37.846;2023-04-05T09:31:35;20.71;46.27
75130;HTU21D;63703;44.716;37.846;2023-04-05T09:34:07;20.76;47.02
75130;HTU21D;63703;44.716;37.846;2023-04-05T09:36:34;20.56;46.76
75130;HTU21D;63703;44.716;37.846;2023-04-05T09:39:08;20.21;48.18
75130;HTU21D;63703;44.716;37.846;2023-04-05T09:41:34;19.76;49.24
75130;HTU21D;63703;44.716;37.846;2023-04-05T09:44:01;19.44;50.08
75130;HTU21D;63703;44.716;37.846;2023-04-05T09:46:35;19.01;52.77
75130;HTU21D;63703;44.716;37.846;2023-04-05T09:49:04;18.35;54.21
75130;HTU21D;63703;44.716;37.846;2023-04-05T09:51:37;17.64;55.70
75130;HTU21D;63703;44.716;37.846;2023-04-05T09:54:09;17.34;57.32
75130;HTU21D;63703;44.716;37.846;2023-04-05T09:56:36;17.11;58.80
75130;HTU21D;63703;44.716;37.846;2023-04-05T09:59:11;16.80;58.83
75130;HTU21D;63703;44.716;37.846;2023-04-05T10:01:42;16.64;59.04
75130;HTU21D;63703;44.716;37.846;2023-04-05T10:04:08;16.60;59.71
75130;HTU21D;63703;44.716;37.846;2023-04-05T10:06:36;16.61;59.83
75130;HTU21D;63703;44.716;37.846;2023-04-05T10:09:03;16.67;59.90
75130;HTU21D;63703;44.716;37.846;2023-04-05T10:11:30;16.67;60.29
75130;HTU21D;63703;44.716;37.846;2023-04-05T10:13:59;16.61;60.76
75130;HTU21D;63703;44.716;37.846;2023-04-05T10:16:29;16.60;60.47
75130;HTU21D;63703;44.716;37.846;2023-04-05T10:18:57;16.62;60.23
75130;HTU21D;63703;44.716;37.846;2023-04-05T10:21:27;16.58;60.31
75130;HTU21D;63703;44.716;37.846;2023-04-05T10:26:39;16.41;61.28
75130;HTU21D;63703;44.716;37.846;2023-04-05T10:29:18;16.27;62.00
75130;HTU21D;63703;44.716;37.846;2023-04-05T10:32:00;16.19;62.18
75130;HTU21D;63703;44.716;37.846;2023-04-05T10:34:30;16.32;61.47
75130;HTU21D;63703;44.716;37.846;2023-04-05T10:37:00;16.44;61.30
75130;HTU21D;63703;44.716;37.846;2023-04-05T10:39:44;16.51;61.38
75130;HTU21D;63703;44.716;37.846;2023-04-05T10:42:19;16.60;60.99
75130;HTU21D;63703;44.716;37.846;2023-04-05T10:44:50;16.74;60.71
75130;HTU21D;63703;44.716;37.846;2023-04-05T10:47:18;17.04;60.28
75130;HTU21D;63703;44.716;37.846;2023-04-05T10:49:48;17.52;59.32
75130;HTU21D;63703;44.716;37.846;2023-04-05T10:52:16;17.80;58.74
75130;HTU21D;63703;44.716;37.846;2023-04-05T10:54:43;18.20;58.14
75130;HTU21D;63703;44.716;37.846;2023-04-05T10:57:09;18.42;57.26
75130;HTU21D;63703;44.716;37.846;2023-04-05T10:59:41;18.64;55.97
75130;HTU21D;63703;44.716;37.846;2023-04-05T11:02:08;18.76;55.73
75130;HTU21D;63703;44.716;37.846;2023-04-05T11:04:34;18.92;55.41
75130;HTU21D;63703;44.716;37.846;2023-04-05T11:07:20;19.21;54.22
75130;HTU21D;63703;44.716;37.846;2023-04-05T11:09:52;19.40;53.86
75130;HTU21D;63703;44.716;37.846;2023-04-05T11:12:19;19.62;53.70
75130;HTU21D;63703;44.716;37.846;2023-04-05T11:14:45;19.67;53.43
75130;HTU21D;63703;44.716;37.846;2023-04-05T11:17:25;19.57;53.28
75130;HTU21D;63703;44.716;37.846;2023-04-05T11:20:03;19.30;54.26
75130;HTU21D;63703;44.716;37.846;2023-04-05T11:22:30;19.06;54.79
75130;HTU21D;63703;44.716;37.846;2023-04-05T11:24:58;18.88;54.95
75130;HTU21D;63703;44.716;37.846;2023-04-05T11:27:28;18.71;55.60
75130;HTU21D;63703;44.716;37.846;2023-04-05T11:29:56;18.63;56.15
75130;HTU21D;63703;44.716;37.846;2023-04-05T11:32:22;18.51;56.39
75130;HTU21D;63703;44.716;37.846;2023-04-05T11:35:05;18.51;57.55
75130;HTU21D;63703;44.716;37.846;2023-04-05T11:40:28;18.25;58.42
75130;HTU21D;63703;44.716;37.846;2023-04-05T11:43:08;18.27;58.83
75130;HTU21D;63703;44.716;37.846;2023-04-05T11:45:39;18.26;58.70
75130;HTU21D;63703;44.716;37.846;2023-04-05T11:48:08;18.39;58.82
75130;HTU21D;63703;44.716;37.846;2023-04-05T11:50:36;18.48;58.51
75130;HTU21D;63703;44.716;37.846;2023-04-05T11:53:16;18.62;58.37
75130;HTU21D;63703;44.716;37.846;2023-04-05T11:55:44;18.92;57.98
75130;HTU21D;63703;44.716;37.846;2023-04-05T11:58:19;19.10;56.90
75130;HTU21D;63703;44.716;37.846;2023-04-05T12:01:01;18.96;57.00
75130;HTU21D;63703;44.716;37.846;2023-04-05T12:03:28;18.76;56.90
75130;HTU21D;63703;44.716;37.846;2023-04-05T12:05:56;18.29;57.59
75130;HTU21D;63703;44.716;37.846;2023-04-05T12:08:22;17.78;58.72
75130;HTU21D;63703;44.716;37.846;2023-04-05T12:10:53;17.35;60.02
75130;HTU21D;63703;44.716;37.846;2023-04-05T12:13:31;17.09;62.25
75130;HTU21D;63703;44.716;37.846;2023-04-05T12:15:59;16.67;61.94
75130;HTU21D;63703;44.716;37.846;2023-04-05T12:18:27;16.51;62.29
75130;HTU21D;63703;44.716;37.846;2023-04-05T12:20:54;16.64;62.33
75130;HTU21D;63703;44.716;37.846;2023-04-05T12:23:21;16.70;62.41
75130;HTU21D;63703;44.716;37.846;2023-04-05T12:25:48;17.02;62.24
75130;HTU21D;63703;44.716;37.846;2023-04-05T12:28:14;17.80;61.52
75130;HTU21D;63703;44.716;37.846;2023-04-05T12:30:55;18.83;58.90
75130;HTU21D;63703;44.716;37.846;2023-04-05T12:33:27;19.55;56.93
75130;HTU21D;63703;44.716;37.846;2023-04-05T12:35:53;20.02;55.61
75130;HTU21D;63703;44.716;37.846;2023-04-05T12:38:19;20.42;54.23
75130;HTU21D;63703;44.716;37.846;2023-04-05T12:40:45;20.62;53.36
75130;HTU21D;63703;44.716;37.846;2023-04-05T12:43:11;21.34;51.89
75130;HTU21D;63703;44.716;37.846;2023-04-05T12:45:44;21.49;50.75
75130;HTU21D;63703;44.716;37.846;2023-04-05T12:48:12;21.78;50.00
75130;HTU21D;63703;44.716;37.846;2023-04-05T12:50:42;22.31;48.37
75130;HTU21D;63703;44.716;37.846;2023-04-05T12:53:18;22.57;47.47
75130;HTU21D;63703;44.716;37.846;2023-04-05T12:55:52;22.79;47.11
75130;HTU21D;63703;44.716;37.846;2023-04-05T12:58:30;23.26;45.82
75130;HTU21D;63703;44.716;37.846;2023-04-05T13:00:57;23.11;45.66
75130;HTU21D;63703;44.716;37.846;2023-04-05T13:03:25;22.95;45.50
75130;HTU21D;63703;44.716;37.846;2023-04-05T13:05:51;22.82;45.45
75130;HTU21D;63703;44.716;37.846;2023-04-05T13:08:17;22.44;45.65
75130;HTU21D;63703;44.716;37.846;2023-04-05T13:10:45;21.96;46.11
75130;HTU21D;63703;44.716;37.846;2023-04-05T13:13:18;20.89;47.72
75130;HTU21D;63703;44.716;37.846;2023-04-05T13:15:45;20.12;49.82
75130;HTU21D;63703;44.716;37.846;2023-04-05T13:18:11;19.41;51.31
75130;HTU21D;63703;44.716;37.846;2023-04-05T13:20:41;19.06;52.55
75130;HTU21D;63703;44.716;37.846;2023-04-05T13:23:07;18.41;54.18
75130;HTU21D;63703;44.716;37.846;2023-04-05T13:25:37;17.63;56.26
75130;HTU21D;63703;44.716;37.846;2023-04-05T13:28:03;17.05;58.19
75130;HTU21D;63703;44.716;37.846;2023-04-05T13:30:29;16.48;60.41
75130;HTU21D;63703;44.716;37.846;2023-04-05T13:32:56;16.01;61.68
75130;HTU21D;63703;44.716;37.846;2023-04-05T13:35:22;15.70;63.15
75130;HTU21D;63703;44.716;37.846;2023-04-05T13:37:48;15.41;63.82
75130;HTU21D;63703;44.716;37.846;2023-04-05T13:40:17;15.23;65.16
75130;HTU21D;63703;44.716;37.846;2023-04-05T13:42:43;14.92;65.92
75130;HTU21D;63703;44.716;37.846;2023-04-05T13:45:09;14.68;66.70
75130;HTU21D;63703;44.716;37.846;2023-04-05T13:47:35;14.55;67.11
75130;HTU21D;63703;44.716;37.846;2023-04-05T13:50:01;14.49;67.51
75130;HTU21D;63703;44.716;37.846;2023-04-05T13:52:28;14.37;68.56
75130;HTU21D;63703;44.716;37.846;2023-04-05T13:54:54;14.17;69.33
75130;HTU21D;63703;44.716;37.846;2023-04-05T13:57:21;14.03;70.10
75130;HTU21D;63703;44.716;37.846;2023-04-05T13:59:47;13.92;70.39
75130;HTU21D;63703;44.716;37.846;2023-04-05T14:02:13;13.81;71.01
75130;HTU21D;63703;44.716;37.846;2023-04-05T14:04:40;13.70;71.70
75130;HTU21D;63703;44.716;37.846;2023-04-05T14:07:06;13.60;72.05
75130;HTU21D;63703;44.716;37.846;2023-04-05T14:09:33;13.51;72.39
75130;HTU21D;63703;44.716;37.846;2023-04-05T14:11:59;13.40;72.75
75130;HTU21D;63703;44.716;37.846;2023-04-05T14:14:27;13.30;72.86
75130;HTU21D;63703;44.716;37.846;2023-04-05T14:16:53;13.16;73.06
75130;HTU21D;63703;44.716;37.846;2023-04-05T14:19:20;13.07;73.38
75130;HTU21D;63703;44.716;37.846;2023-04-05T14:21:47;12.95;73.69
75130;HTU21D;63703;44.716;37.846;2023-04-05T14:24:14;12.87;74.07
75130;HTU21D;63703;44.716;37.846;2023-04-05T14:26:41;12.78;74.28
75130;HTU21D;63703;44.716;37.846;2023-04-05T14:29:10;12.73;74.33
75130;HTU21D;63703;44.716;37.846;2023-04-05T14:31:36;12.66;74.35
75130;HTU21D;63703;44.716;37.846;2023-04-05T14:34:02;12.64;74.64
75130;HTU21D;63703;44.716;37.846;2023-04-05T14:36:28;12.59;74.82
75130;HTU21D;63703;44.716;37.846;2023-04-05T14:38:53;12.53;74.95
75130;HTU21D;63703;44.716;37.846;2023-04-05T14:41:19;12.48;75.13
75130;HTU21D;63703;44.716;37.846;2023-04-05T14:43:45;12.46;75.36
75130;HTU21D;63703;44.716;37.846;2023-04-05T14:46:11;12.38;75.63
75130;HTU21D;63703;44.716;37.846;2023-04-05T14:48:37;12.36;75.76
75130;HTU21D;63703;44.716;37.846;2023-04-05T14:51:04;12.31;75.92
75130;HTU21D;63703;44.716;37.846;2023-04-05T14:53:30;12.31;76.20
75130;HTU21D;63703;44.716;37.846;2023-04-05T14:55:56;12.27;76.29
75130;HTU21D;63703;44.716;37.846;2023-04-05T14:58:22;12.22;76.57
75130;HTU21D;63703;44.716;37.846;2023-04-05T15:00:49;12.16;76.63
75130;HTU21D;63703;44.716;37.846;2023-04-05T15:03:15;12.14;76.76
75130;HTU21D;63703;44.716;37.846;2023-04-05T15:05:45;12.13;76.88
75130;HTU21D;63703;44.716;37.846;2023-04-05T15:08:11;12.08;77.01
75130;HTU21D;63703;44.716;37.846;2023-04-05T15:10:38;12.06;77.12
75130;HTU21D;63703;44.716;37.846;2023-04-05T15:13:05;12.04;77.18
75130;HTU21D;63703;44.716;37.846;2023-04-05T15:15:31;12.02;77.53
75130;HTU21D;63703;44.716;37.846;2023-04-05T15:17:57;11.93;77.77
75130;HTU21D;63703;44.716;37.846;2023-04-05T15:20:23;11.85;78.06
75130;HTU21D;63703;44.716;37.846;2023-04-05T15:22:49;11.77;78.34
75130;HTU21D;63703;44.716;37.846;2023-04-05T15:25:15;11.71;78.50